Time;durP1;ratioP1;P1;durP2;ratioP2;P2;SDS_P1;SDS_P2;PMS_P1;PMS_P2;Temp;Humidity;BMP_temperature;BMP_pressure;BME280_temperature;BME280_humidity;BME280_pressure;Samples;Min_cycle;Max_cycle;Signal;HPM_P1;HPM_P2
2023/05/22 00:02:42;;;;;;;13.63;12.50;;;;;;;;;;10230664;28;20510;-69
2023/05/22 00:07:40;;;;;;;13.95;12.55;;;;;;;;;;10226777;28;20050;-69
2023/05/22 00:12:37;;;;;;;13.18;11.93;;;;;;;;;;10232522;28;20514;-69
2023/05/22 00:17:33;;;;;;;13.23;12.02;;;;;;;;;;10227346;28;20045;-69
2023/05/22 00:22:34;;;;;;;13.43;12.15;;;;;;;;;;10233909;28;20045;-70
2023/05/22 00:27:31;;;;;;;13.95;12.65;;;;;;;;;;10225958;28;20045;-70
2023/05/22 00:32:27;;;;;;;15.52;13.07;;;;;;;;;;10222369;28;20045;-70
2023/05/22 00:37:24;;;;;;;11.98;10.90;;;;;;;;;;10229474;28;20606;-70
2023/05/22 00:42:21;;;;;;;17.33;12.52;;;;;;;;;;10235078;28;20567;-69
2023/05/22 00:47:17;;;;;;;12.43;11.32;;;;;;;;;;10211982;28;20041;-69
2023/05/22 00:52:16;;;;;;;13.85;11.82;;;;;;;;;;10233523;28;20056;-69
2023/05/22 00:57:12;;;;;;;13.65;12.40;;;;;;;;;;10230181;28;20042;-69
2023/05/22 01:07:55;;;;;;;13.40;12.20;;;;;;;;;;11120144;23;20085;-64
2023/05/22 01:13:18;;;;;;;13.00;11.80;;;;;;;;;;10152549;28;20714;-63
2023/05/22 01:18:33;;;;;;;13.80;12.23;;;;;;;;;;10153777;28;20100;-64
2023/05/22 01:23:30;;;;;;;12.52;11.40;;;;;;;;;;10143020;28;20050;-64
2023/05/22 01:28:35;;;;;;;13.50;11.48;;;;;;;;;;10137990;28;20567;-64
2023/05/22 01:33:34;;;;;;;12.80;11.70;;;;;;;;;;10133894;28;20051;-65
2023/05/22 01:38:31;;;;;;;13.60;12.18;;;;;;;;;;10131043;28;20051;-65
2023/05/22 01:43:28;;;;;;;13.30;12.00;;;;;;;;;;10139882;28;20088;-64
2023/05/22 01:48:24;;;;;;;13.55;12.20;;;;;;;;;;10139928;28;20042;-64
2023/05/22 01:53:33;;;;;;;13.18;11.77;;;;;;;;;;10147780;28;20046;-65
2023/05/22 01:58:38;;;;;;;12.38;11.27;;;;;;;;;;10137207;28;20074;-64
2023/05/22 02:03:35;;;;;;;12.25;11.18;;;;;;;;;;10133230;28;20052;-64
2023/05/22 02:08:32;;;;;;;14.23;12.93;;;;;;;;;;10145684;28;20692;-63
2023/05/22 02:13:29;;;;;;;14.20;12.77;;;;;;;;;;10149332;28;20042;-64
2023/05/22 02:18:28;;;;;;;13.20;11.82;;;;;;;;;;10133632;28;20105;-64
2023/05/22 02:23:25;;;;;;;12.15;10.95;;;;;;;;;;10133651;28;20423;-66
2023/05/22 02:28:21;;;;;;;13.95;12.55;;;;;;;;;;10146453;28;20657;-66
2023/05/22 02:33:21;;;;;;;13.27;12.00;;;;;;;;;;10148653;28;20053;-65
2023/05/22 02:38:18;;;;;;;12.80;11.50;;;;;;;;;;10145928;28;20046;-65
2023/05/22 02:43:14;;;;;;;14.05;12.75;;;;;;;;;;10137098;28;20042;-64
2023/05/22 02:48:10;;;;;;;13.48;12.25;;;;;;;;;;10145288;28;20066;-64
2023/05/22 02:53:08;;;;;;;13.55;12.25;;;;;;;;;;10142811;28;20448;-64
2023/05/22 02:58:05;;;;;;;12.98;11.77;;;;;;;;;;10145886;28;20049;-64
2023/05/22 03:03:01;;;;;;;13.77;12.50;;;;;;;;;;10148312;28;20045;-64
2023/05/22 03:07:58;;;;;;;15.93;11.68;;;;;;;;;;10131692;28;20035;-64
2023/05/22 03:12:54;;;;;;;12.38;11.02;;;;;;;;;;10141836;28;20070;-64
2023/05/22 03:17:50;;;;;;;12.60;11.45;;;;;;;;;;10131290;28;20047;-65
2023/05/22 03:22:47;;;;;;;12.38;11.27;;;;;;;;;;10138766;28;20145;-65
2023/05/22 03:27:43;;;;;;;13.18;11.82;;;;;;;;;;10147803;28;20042;-65
2023/05/22 03:32:39;;;;;;;12.30;11.30;;;;;;;;;;10148211;28;20554;-69
2023/05/22 03:37:36;;;;;;;12.23;11.23;;;;;;;;;;10135218;28;20534;-68
2023/05/22 03:42:32;;;;;;;12.25;11.13;;;;;;;;;;10143169;28;20050;-67
2023/05/22 03:47:28;;;;;;;12.23;10.95;;;;;;;;;;10146008;28;20058;-70
2023/05/22 03:52:25;;;;;;;11.90;10.80;;;;;;;;;;10150504;28;20060;-70
2023/05/22 03:57:21;;;;;;;12.32;11.15;;;;;;;;;;10145399;28;20068;-68
2023/05/22 04:02:18;;;;;;;12.52;11.32;;;;;;;;;;10145735;28;20097;-67
2023/05/22 04:07:17;;;;;;;12.77;11.57;;;;;;;;;;10131742;28;20125;-72
2023/05/22 04:12:13;;;;;;;12.70;11.70;;;;;;;;;;10139878;28;20061;-70
2023/05/22 04:17:10;;;;;;;12.32;11.32;;;;;;;;;;10135145;28;20043;-71
2023/05/22 04:22:07;;;;;;;12.57;11.30;;;;;;;;;;10128852;28;20488;-72
2023/05/22 04:27:03;;;;;;;12.77;11.57;;;;;;;;;;10131760;28;20605;-72
2023/05/22 04:32:00;;;;;;;13.52;12.32;;;;;;;;;;10130535;28;20149;-71
2023/05/22 04:36:56;;;;;;;13.57;12.48;;;;;;;;;;10129843;28;20042;-71
2023/05/22 04:41:53;;;;;;;12.52;11.40;;;;;;;;;;10127656;28;20049;-72
2023/05/22 04:46:49;;;;;;;12.85;11.82;;;;;;;;;;10138433;28;20042;-72
2023/05/22 04:51:46;;;;;;;13.52;12.35;;;;;;;;;;10150101;28;20093;-71
2023/05/22 04:56:42;;;;;;;13.55;12.35;;;;;;;;;;10142336;28;20054;-71
2023/05/22 05:01:39;;;;;;;12.45;11.27;;;;;;;;;;10132055;28;20457;-71
2023/05/22 05:06:36;;;;;;;12.45;11.35;;;;;;;;;;10127962;28;20046;-71
2023/05/22 05:11:33;;;;;;;13.85;11.52;;;;;;;;;;10125737;28;20062;-71
2023/05/22 05:16:29;;;;;;;13.23;11.98;;;;;;;;;;10117560;28;20096;-71
2023/05/22 05:21:26;;;;;;;13.13;11.90;;;;;;;;;;10123005;28;20050;-71
2023/05/22 05:26:23;;;;;;;13.35;12.00;;;;;;;;;;10130148;28;20061;-71
2023/05/22 05:31:19;;;;;;;12.82;11.65;;;;;;;;;;10147460;28;20050;-71
2023/05/22 05:36:16;;;;;;;11.98;10.88;;;;;;;;;;10151857;28;20043;-71
2023/05/22 05:41:12;;;;;;;13.07;11.90;;;;;;;;;;10142807;28;20508;-71
2023/05/22 05:46:08;;;;;;;16.65;11.73;;;;;;;;;;10138784;28;20147;-71
2023/05/22 05:51:05;;;;;;;14.63;13.13;;;;;;;;;;10145647;28;20038;-71
2023/05/22 05:56:02;;;;;;;13.30;12.10;;;;;;;;;;10140608;28;20829;-71
2023/05/22 06:00:58;;;;;;;11.57;10.50;;;;;;;;;;10139057;28;20050;-71
2023/05/22 06:05:56;;;;;;;11.23;9.88;;;;;;;;;;10143427;28;20045;-71
2023/05/22 06:10:52;;;;;;;10.75;9.73;;;;;;;;;;10143680;28;20090;-71
2023/05/22 06:15:49;;;;;;;14.20;10.02;;;;;;;;;;10136102;28;20112;-71
2023/05/22 06:20:45;;;;;;;10.63;9.73;;;;;;;;;;10137886;28;20050;-71
2023/05/22 06:25:42;;;;;;;12.07;9.82;;;;;;;;;;10125974;28;20507;-71
2023/05/22 06:30:38;;;;;;;10.95;9.23;;;;;;;;;;10136351;28;20049;-71
2023/05/22 06:35:35;;;;;;;9.80;8.68;;;;;;;;;;10139090;28;20064;-71
2023/05/22 06:40:32;;;;;;;15.30;8.88;;;;;;;;;;10126463;28;20136;-71
2023/05/22 06:45:28;;;;;;;9.68;8.82;;;;;;;;;;10147540;28;20068;-71
2023/05/22 06:50:24;;;;;;;9.48;8.57;;;;;;;;;;10134357;28;20074;-71
2023/05/22 06:55:21;;;;;;;9.50;8.48;;;;;;;;;;10156034;28;20042;-71
2023/05/22 07:00:18;;;;;;;9.70;8.73;;;;;;;;;;10140831;28;20042;-71
2023/05/22 07:05:17;;;;;;;8.93;8.13;;;;;;;;;;10136727;28;20050;-71
2023/05/22 07:10:14;;;;;;;9.05;8.25;;;;;;;;;;10144553;28;20728;-71
2023/05/22 07:15:12;;;;;;;9.00;8.05;;;;;;;;;;10122500;28;20047;-71
2023/05/22 07:20:14;;;;;;;8.85;7.93;;;;;;;;;;10131448;28;20634;-71
2023/05/22 07:25:10;;;;;;;9.02;7.97;;;;;;;;;;10139478;28;20046;-71
2023/05/22 07:30:07;;;;;;;11.32;9.02;;;;;;;;;;10134467;28;20496;-71
2023/05/22 07:35:04;;;;;;;9.30;8.40;;;;;;;;;;10139030;28;20050;-71
2023/05/22 07:40:01;;;;;;;9.38;8.48;;;;;;;;;;10125839;28;20484;-70
2023/05/22 07:44:57;;;;;;;8.18;7.43;;;;;;;;;;10133232;28;20429;-71
2023/05/22 07:49:54;;;;;;;9.60;8.30;;;;;;;;;;10129328;28;20065;-71
2023/05/22 07:54:50;;;;;;;8.15;7.38;;;;;;;;;;10134422;28;20806;-71
2023/05/22 07:59:47;;;;;;;8.23;7.25;;;;;;;;;;10126923;28;20050;-72
2023/05/22 08:04:43;;;;;;;9.43;7.88;;;;;;;;;;10134185;28;20054;-71
2023/05/22 08:09:40;;;;;;;8.65;7.85;;;;;;;;;;10117260;28;20047;-72
2023/05/22 08:14:37;;;;;;;8.95;7.50;;;;;;;;;;10128516;28;20048;-71
2023/05/22 08:19:33;;;;;;;8.90;7.65;;;;;;;;;;10133167;28;20075;-71
2023/05/22 08:24:31;;;;;;;14.15;8.50;;;;;;;;;;10146236;28;20054;-71
2023/05/22 08:29:28;;;;;;;8.23;7.13;;;;;;;;;;10148678;28;20066;-71
2023/05/22 08:34:25;;;;;;;9.27;7.78;;;;;;;;;;10140305;28;20061;-71
2023/05/22 08:39:21;;;;;;;8.52;7.78;;;;;;;;;;10152398;28;20050;-71
2023/05/22 08:44:18;;;;;;;9.13;7.25;;;;;;;;;;10147832;28;20054;-71
2023/05/22 08:49:16;;;;;;;9.25;7.63;;;;;;;;;;10148117;28;20050;-71
2023/05/22 08:54:14;;;;;;;10.95;9.15;;;;;;;;;;10152809;28;20042;-71
2023/05/22 08:59:11;;;;;;;8.57;7.82;;;;;;;;;;10147972;28;20386;-71
2023/05/22 09:04:07;;;;;;;8.10;7.28;;;;;;;;;;10144378;28;20046;-71
2023/05/22 09:09:03;;;;;;;14.13;9.70;;;;;;;;;;10133248;28;20408;-71
2023/05/22 09:14:07;;;;;;;9.73;8.02;;;;;;;;;;10149370;28;20365;-71
2023/05/22 09:19:03;;;;;;;8.75;7.32;;;;;;;;;;10130748;28;20137;-71
2023/05/22 09:24:00;;;;;;;7.32;6.63;;;;;;;;;;10128559;28;20050;-72
2023/05/22 09:28:58;;;;;;;10.50;8.05;;;;;;;;;;10143224;28;20043;-71
2023/05/22 09:33:54;;;;;;;9.10;7.72;;;;;;;;;;10148270;28;20057;-72
2023/05/22 09:38:52;;;;;;;8.60;7.93;;;;;;;;;;10139356;28;20054;-71
2023/05/22 09:43:50;;;;;;;7.90;7.20;;;;;;;;;;10131048;28;20054;-71
2023/05/22 09:48:52;;;;;;;8.43;7.10;;;;;;;;;;10141308;28;20571;-71
2023/05/22 09:53:50;;;;;;;8.27;7.22;;;;;;;;;;10135751;28;20042;-71
2023/05/22 09:58:46;;;;;;;7.85;7.05;;;;;;;;;;10119435;28;20050;-71
2023/05/22 10:03:43;;;;;;;8.77;7.97;;;;;;;;;;10150346;28;20105;-71
2023/05/22 10:08:43;;;;;;;8.95;8.15;;;;;;;;;;10137600;28;20045;-71
2023/05/22 10:13:40;;;;;;;9.00;8.20;;;;;;;;;;10134718;28;20043;-71
2023/05/22 10:18:36;;;;;;;8.95;8.05;;;;;;;;;;10140710;28;20389;-71
2023/05/22 10:23:33;;;;;;;8.73;7.88;;;;;;;;;;10137738;28;20148;-71
2023/05/22 10:28:34;;;;;;;12.80;8.48;;;;;;;;;;10128628;28;20053;-71
2023/05/22 10:33:38;;;;;;;9.60;8.18;;;;;;;;;;10141713;28;20066;-71
2023/05/22 10:38:41;;;;;;;9.23;8.40;;;;;;;;;;10133185;28;20050;-71
2023/05/22 10:43:40;;;;;;;8.75;8.02;;;;;;;;;;10143343;28;20077;-71
2023/05/22 10:48:38;;;;;;;9.27;8.40;;;;;;;;;;10128725;28;20058;-71
2023/05/22 10:53:35;;;;;;;10.57;7.97;;;;;;;;;;10147415;28;20746;-71
2023/05/22 10:58:32;;;;;;;8.77;7.85;;;;;;;;;;10133189;28;20038;-71
2023/05/22 11:03:48;;;;;;;9.15;8.13;;;;;;;;;;10142751;28;20761;-71
2023/05/22 11:08:46;;;;;;;10.30;7.68;;;;;;;;;;10132659;28;20121;-71
2023/05/22 11:13:47;;;;;;;13.45;8.43;;;;;;;;;;10142384;28;20516;-71
2023/05/22 11:18:44;;;;;;;10.25;8.77;;;;;;;;;;10139821;28;20463;-71
2023/05/22 11:23:42;;;;;;;8.90;8.00;;;;;;;;;;10134387;28;20050;-71
2023/05/22 11:28:38;;;;;;;8.85;7.85;;;;;;;;;;10135385;28;20047;-71
2023/05/22 11:33:35;;;;;;;11.13;8.63;;;;;;;;;;10139281;28;20062;-71
2023/05/22 11:38:32;;;;;;;12.02;7.47;;;;;;;;;;10142836;28;20050;-71
2023/05/22 11:43:30;;;;;;;8.50;7.63;;;;;;;;;;10143287;28;20832;-71
2023/05/22 11:48:29;;;;;;;8.93;7.85;;;;;;;;;;10137006;28;20050;-71
2023/05/22 11:53:25;;;;;;;7.82;7.13;;;;;;;;;;10147728;28;20500;-71
2023/05/22 11:58:27;;;;;;;8.73;7.40;;;;;;;;;;10145805;28;20047;-71
2023/05/22 12:03:24;;;;;;;8.40;7.60;;;;;;;;;;10142120;28;20054;-71
2023/05/22 12:08:21;;;;;;;11.75;8.60;;;;;;;;;;10145706;28;20049;-71
2023/05/22 12:13:22;;;;;;;8.60;7.90;;;;;;;;;;10144191;28;20074;-71
2023/05/22 12:18:18;;;;;;;9.85;8.30;;;;;;;;;;10142467;28;20058;-71
2023/05/22 12:23:21;;;;;;;11.50;8.05;;;;;;;;;;10142801;28;20055;-71
2023/05/22 12:28:18;;;;;;;9.63;7.53;;;;;;;;;;10143639;28;20050;-71
2023/05/22 12:33:15;;;;;;;8.32;7.30;;;;;;;;;;10151141;28;20058;-71
2023/05/22 12:38:12;;;;;;;12.57;7.72;;;;;;;;;;10144080;28;20046;-71
2023/05/22 12:43:08;;;;;;;8.68;7.35;;;;;;;;;;10151786;28;20527;-71
2023/05/22 12:48:05;;;;;;;8.10;7.28;;;;;;;;;;10150791;28;20065;-71
2023/05/22 12:53:01;;;;;;;10.00;8.93;;;;;;;;;;10151173;28;20468;-71
2023/05/22 12:57:57;;;;;;;8.02;7.30;;;;;;;;;;10139647;28;20054;-70
2023/05/22 13:02:54;;;;;;;10.02;7.35;;;;;;;;;;10136526;28;20051;-71
2023/05/22 13:07:50;;;;;;;8.95;8.15;;;;;;;;;;10139507;28;20073;-71
2023/05/22 13:12:49;;;;;;;8.20;7.45;;;;;;;;;;10149626;28;20054;-71
2023/05/22 13:17:46;;;;;;;8.13;7.53;;;;;;;;;;10156802;28;20499;-71
2023/05/22 13:22:42;;;;;;;8.95;8.15;;;;;;;;;;10149353;28;20129;-71
2023/05/22 13:27:39;;;;;;;9.23;8.20;;;;;;;;;;10148307;28;20574;-71
2023/05/22 13:32:35;;;;;;;9.65;8.15;;;;;;;;;;10145325;28;20128;-71
2023/05/22 13:37:31;;;;;;;8.70;7.90;;;;;;;;;;10147095;28;20047;-71
2023/05/22 13:42:28;;;;;;;8.32;7.63;;;;;;;;;;10147352;28;20093;-71
2023/05/22 13:47:27;;;;;;;8.90;8.07;;;;;;;;;;10135778;28;20105;-71
2023/05/22 13:52:24;;;;;;;8.32;7.35;;;;;;;;;;10139460;28;20055;-71
2023/05/22 13:57:20;;;;;;;8.15;7.35;;;;;;;;;;10133053;28;20436;-71
2023/05/22 14:02:19;;;;;;;11.32;7.50;;;;;;;;;;10138599;28;20042;-71
2023/05/22 14:07:15;;;;;;;8.25;7.55;;;;;;;;;;10130695;28;20089;-71
2023/05/22 14:12:12;;;;;;;11.45;8.85;;;;;;;;;;10141208;28;20038;-71
2023/05/22 14:17:10;;;;;;;8.63;7.20;;;;;;;;;;10133182;28;20584;-71
2023/05/22 14:22:07;;;;;;;9.63;7.80;;;;;;;;;;10144773;28;20601;-70
2023/05/22 14:27:03;;;;;;;10.07;8.55;;;;;;;;;;10146981;28;20579;-71
2023/05/22 14:32:01;;;;;;;9.25;8.55;;;;;;;;;;10143626;28;20608;-71
2023/05/22 14:36:58;;;;;;;7.90;7.22;;;;;;;;;;10138436;28;20046;-71
2023/05/22 14:41:54;;;;;;;8.20;7.55;;;;;;;;;;10147626;28;20084;-71
2023/05/22 14:46:52;;;;;;;7.90;7.20;;;;;;;;;;10140417;28;20471;-71
2023/05/22 14:51:48;;;;;;;8.82;8.02;;;;;;;;;;10134437;28;20050;-72
2023/05/22 14:56:45;;;;;;;17.20;7.95;;;;;;;;;;10125009;28;20101;-71
2023/05/22 15:01:41;;;;;;;15.30;8.00;;;;;;;;;;10123137;28;20042;-71
2023/05/22 15:06:37;;;;;;;7.70;7.00;;;;;;;;;;10122081;28;20138;-71
2023/05/22 15:11:34;;;;;;;8.02;7.30;;;;;;;;;;10120584;28;20069;-71
2023/05/22 15:16:30;;;;;;;8.23;7.53;;;;;;;;;;10122448;28;20073;-71
2023/05/22 15:21:26;;;;;;;19.25;8.18;;;;;;;;;;10125378;28;20587;-71
2023/05/22 15:26:23;;;;;;;11.02;8.10;;;;;;;;;;10145449;28;20477;-70
2023/05/22 15:31:20;;;;;;;8.95;8.15;;;;;;;;;;10151898;28;20719;-70
2023/05/22 15:36:16;;;;;;;8.77;8.00;;;;;;;;;;10151405;28;20133;-69
2023/05/22 15:41:12;;;;;;;11.38;8.77;;;;;;;;;;10146592;28;20074;-71
2023/05/22 15:46:11;;;;;;;11.07;9.48;;;;;;;;;;10153598;28;20058;-71
2023/05/22 15:51:08;;;;;;;11.63;9.88;;;;;;;;;;10145512;28;20407;-69
2023/05/22 15:56:05;;;;;;;10.63;9.57;;;;;;;;;;10148927;28;20056;-69
2023/05/22 16:01:01;;;;;;;13.10;11.52;;;;;;;;;;10152809;28;20057;-69
2023/05/22 16:05:58;;;;;;;15.88;11.93;;;;;;;;;;10128727;28;20047;-68
2023/05/22 16:10:57;;;;;;;16.27;11.35;;;;;;;;;;10139781;28;20050;-68
2023/05/22 16:15:54;;;;;;;16.17;11.25;;;;;;;;;;10146923;28;20093;-68
2023/05/22 16:20:50;;;;;;;12.05;10.07;;;;;;;;;;10152219;28;20046;-68
2023/05/22 16:25:46;;;;;;;12.88;10.18;;;;;;;;;;10151012;28;20050;-68
2023/05/22 16:30:46;;;;;;;12.95;10.93;;;;;;;;;;10150951;28;20054;-68
2023/05/22 16:35:45;;;;;;;13.90;11.98;;;;;;;;;;10139456;28;20545;-68
2023/05/22 16:40:42;;;;;;;16.30;12.73;;;;;;;;;;10141129;28;20514;-69
2023/05/22 16:45:38;;;;;;;15.20;12.18;;;;;;;;;;10146431;28;20061;-68
2023/05/22 16:50:35;;;;;;;14.00;12.63;;;;;;;;;;10145282;28;20054;-69
2023/05/22 16:55:31;;;;;;;15.32;11.55;;;;;;;;;;10140045;28;20058;-69
2023/05/22 17:00:28;;;;;;;13.70;12.23;;;;;;;;;;10150274;28;20054;-69
2023/05/22 17:05:24;;;;;;;14.85;12.00;;;;;;;;;;10141548;28;20117;-69
2023/05/22 17:10:21;;;;;;;13.20;12.00;;;;;;;;;;10142209;28;20085;-68
2023/05/22 17:15:17;;;;;;;13.55;12.35;;;;;;;;;;10147495;28;20042;-69
2023/05/22 17:20:13;;;;;;;14.15;12.40;;;;;;;;;;10142829;28;20527;-68
2023/05/22 17:25:11;;;;;;;14.32;12.60;;;;;;;;;;10140428;28;20046;-68
2023/05/22 17:30:07;;;;;;;15.35;13.70;;;;;;;;;;10141282;28;20476;-68
2023/05/22 17:35:05;;;;;;;13.57;12.15;;;;;;;;;;10146257;28;20046;-69
2023/05/22 17:40:02;;;;;;;14.63;13.13;;;;;;;;;;10133532;28;20112;-70
2023/05/22 17:44:59;;;;;;;14.48;13.02;;;;;;;;;;10141931;28;21602;-68
2023/05/22 17:49:55;;;;;;;13.85;12.50;;;;;;;;;;10143333;28;20057;-68
2023/05/22 17:54:51;;;;;;;15.20;12.45;;;;;;;;;;10145598;28;20053;-68
2023/05/22 17:59:48;;;;;;;13.70;12.05;;;;;;;;;;10146291;28;20050;-68
2023/05/22 18:04:47;;;;;;;14.80;12.05;;;;;;;;;;10146112;28;20138;-68
2023/05/22 18:09:43;;;;;;;13.23;11.93;;;;;;;;;;10137003;28;20047;-68
2023/05/22 18:14:39;;;;;;;14.13;12.70;;;;;;;;;;10141760;28;20528;-68
2023/05/22 18:19:36;;;;;;;15.80;13.13;;;;;;;;;;10140441;28;20042;-68
2023/05/22 18:24:35;;;;;;;13.43;12.02;;;;;;;;;;10135567;28;20636;-68
2023/05/22 18:29:31;;;;;;;14.98;13.23;;;;;;;;;;10146141;28;20070;-68
2023/05/22 18:34:28;;;;;;;19.00;13.23;;;;;;;;;;10147027;28;20109;-68
2023/05/22 18:39:24;;;;;;;12.88;11.57;;;;;;;;;;10147052;28;20612;-68
2023/05/22 18:44:22;;;;;;;14.32;13.00;;;;;;;;;;10136641;28;20034;-68
2023/05/22 18:49:18;;;;;;;14.73;12.55;;;;;;;;;;10147098;28;20112;-68
2023/05/22 18:54:14;;;;;;;12.27;11.18;;;;;;;;;;10139293;28;20042;-68
2023/05/22 18:59:11;;;;;;;12.95;11.70;;;;;;;;;;10137852;28;20098;-68
2023/05/22 19:04:07;;;;;;;13.02;11.82;;;;;;;;;;10140546;28;20046;-68
2023/05/22 19:09:04;;;;;;;14.82;13.30;;;;;;;;;;10131091;28;20500;-68
2023/05/22 19:14:00;;;;;;;12.70;10.90;;;;;;;;;;10145523;28;20083;-68
2023/05/22 19:18:56;;;;;;;15.27;12.63;;;;;;;;;;10144199;28;20124;-68
2023/05/22 19:23:53;;;;;;;13.55;12.23;;;;;;;;;;10141379;28;20050;-68
2023/05/22 19:28:49;;;;;;;13.70;12.40;;;;;;;;;;10142298;28;20507;-68
2023/05/22 19:33:45;;;;;;;12.70;11.40;;;;;;;;;;10142323;28;20536;-68
2023/05/22 19:38:42;;;;;;;12.93;11.63;;;;;;;;;;10132832;28;20049;-68
2023/05/22 19:43:38;;;;;;;12.63;11.43;;;;;;;;;;10139676;28;20109;-70
2023/05/22 19:48:35;;;;;;;13.50;12.20;;;;;;;;;;10126950;28;20137;-70
2023/05/22 19:53:32;;;;;;;12.75;11.38;;;;;;;;;;10143421;28;20046;-69
2023/05/22 19:58:28;;;;;;;12.15;10.82;;;;;;;;;;10138099;28;20046;-67
2023/05/22 20:03:25;;;;;;;12.45;11.20;;;;;;;;;;10136017;28;20072;-68
2023/05/22 20:08:24;;;;;;;12.65;10.93;;;;;;;;;;10128875;28;20109;-68
2023/05/22 20:13:20;;;;;;;11.98;10.85;;;;;;;;;;10143991;28;20047;-68
2023/05/22 20:18:17;;;;;;;12.60;11.25;;;;;;;;;;10140809;28;20620;-68
2023/05/22 20:23:13;;;;;;;12.63;11.35;;;;;;;;;;10140184;28;20459;-68
2023/05/22 20:28:10;;;;;;;19.65;13.05;;;;;;;;;;10136220;28;20096;-68
2023/05/22 20:33:06;;;;;;;19.88;14.63;;;;;;;;;;10147434;28;20048;-68
2023/05/22 20:38:03;;;;;;;13.00;11.52;;;;;;;;;;10138222;28;20054;-68
2023/05/22 20:43:01;;;;;;;13.98;11.60;;;;;;;;;;10141370;28;20051;-68
2023/05/22 20:47:57;;;;;;;15.65;12.65;;;;;;;;;;10138801;28;20058;-68
2023/05/22 20:52:54;;;;;;;13.95;12.48;;;;;;;;;;10143762;28;20056;-67
2023/05/22 20:57:50;;;;;;;19.38;13.02;;;;;;;;;;10129342;28;20509;-67
2023/05/22 21:02:55;;;;;;;13.05;11.73;;;;;;;;;;10141089;28;20046;-67
2023/05/22 21:08:02;;;;;;;14.52;13.02;;;;;;;;;;10150321;28;20065;-68
2023/05/22 21:13:05;;;;;;;16.42;14.30;;;;;;;;;;10149536;28;20038;-67
2023/05/22 21:18:04;;;;;;;18.80;16.77;;;;;;;;;;10132586;28;20054;-70
2023/05/22 21:23:02;;;;;;;21.95;14.82;;;;;;;;;;10144041;28;20054;-70
2023/05/22 21:28:02;;;;;;;19.42;16.75;;;;;;;;;;10140680;28;20047;-70
2023/05/22 21:33:00;;;;;;;18.17;16.27;;;;;;;;;;10138794;28;20077;-69
2023/05/22 21:38:01;;;;;;;18.02;16.20;;;;;;;;;;10143963;28;20061;-69
2023/05/22 21:42:59;;;;;;;28.98;16.40;;;;;;;;;;10141711;28;20069;-65
2023/05/22 21:48:01;;;;;;;21.08;17.92;;;;;;;;;;10138141;28;20436;-66
2023/05/22 21:53:09;;;;;;;17.17;15.40;;;;;;;;;;10137017;28;20054;-68
2023/05/22 21:58:09;;;;;;;18.50;16.52;;;;;;;;;;10140612;28;20133;-67
2023/05/22 22:03:05;;;;;;;17.75;15.43;;;;;;;;;;10146905;28;20533;-68
2023/05/22 22:08:13;;;;;;;17.85;15.38;;;;;;;;;;10137104;28;20082;-68
2023/05/22 22:13:21;;;;;;;20.02;16.08;;;;;;;;;;10148886;28;20080;-69
2023/05/22 22:18:31;;;;;;;18.77;15.70;;;;;;;;;;10142443;28;20085;-69
2023/05/22 22:23:28;;;;;;;14.45;12.98;;;;;;;;;;10137958;28;20058;-66
2023/05/22 22:28:24;;;;;;;17.23;15.38;;;;;;;;;;10147095;28;20053;-66
2023/05/22 22:33:21;;;;;;;16.63;14.25;;;;;;;;;;10139771;28;20055;-68
2023/05/22 22:38:21;;;;;;;14.18;12.73;;;;;;;;;;10136760;28;20153;-68
2023/05/22 22:43:28;;;;;;;13.07;11.77;;;;;;;;;;10134673;28;20057;-68
2023/05/22 22:48:25;;;;;;;16.30;14.43;;;;;;;;;;10141511;28;20046;-67
2023/05/22 22:53:33;;;;;;;14.68;12.85;;;;;;;;;;10143431;28;20074;-67
2023/05/22 22:58:30;;;;;;;14.40;12.73;;;;;;;;;;10145135;28;20567;-68
2023/05/22 23:03:34;;;;;;;15.63;14.10;;;;;;;;;;10143307;28;20477;-69
2023/05/22 23:08:33;;;;;;;14.40;12.90;;;;;;;;;;10145035;28;20062;-67
2023/05/22 23:13:32;;;;;;;13.57;11.10;;;;;;;;;;10144837;28;20441;-67
2023/05/22 23:18:37;;;;;;;15.95;14.35;;;;;;;;;;10145616;28;20053;-67
2023/05/22 23:23:43;;;;;;;12.15;11.00;;;;;;;;;;10142391;28;20047;-69
2023/05/22 23:28:40;;;;;;;13.23;11.88;;;;;;;;;;10140444;28;20054;-67
2023/05/22 23:33:48;;;;;;;13.55;11.57;;;;;;;;;;10139296;28;20085;-67
2023/05/22 23:38:48;;;;;;;13.35;11.98;;;;;;;;;;10135690;28;20042;-70
2023/05/22 23:43:47;;;;;;;14.05;12.60;;;;;;;;;;10142794;28;20497;-66
2023/05/22 23:48:51;;;;;;;12.55;11.45;;;;;;;;;;10136262;28;20069;-69
2023/05/22 23:53:50;;;;;;;13.48;12.18;;;;;;;;;;10138837;28;20047;-68
2023/05/22 23:58:52;;;;;;;12.80;11.57;;;;;;;;;;10151574;28;20042;-68
